Airway Heights, WA (99001)

11:24 AM PST on February 08, 2016 (GMT -0800)
Craig Rd / White Rd | | Change Station
CLOSE
Current Station
Personal Weather Station
Location: Medical Lake, WA
Elevation: 2405 ft
Nearby Weather Stations

Elev 2405 ft 47.58 °N, 117.62 °W | Updated 11 seconds ago

Partly Cloudy
Partly Cloudy
40.1 °F
Feels Like 38 °F
N
3.4
Wind Variable Wind from NNE
Gusts 4.9 mph

Today
High -- | Low -- °F
--% Chance of Precip.
Yesterday
High -- | Low -- °F
Precip. -- in
Pressure 30.67 in
Visibility 10.0 miles
Clouds Mostly Cloudy 20000 ft
Windchill 38 °F
Dew Point 32 °F
Humidity 73%
Rainfall 0.00 in
Snow Depth Not available.
7:07 AM 5:01 PM
New Moon, 0% visible
METAR KGEG 081853Z 04005KT 10SM BKN200 03/M01 A3061 RMK AO2 SLP384 T00331011
Pressure 30.67 in
Visibility 10.0 miles
Clouds Mostly Cloudy 20000 ft
Windchill 38 °F
Dew Point 32 °F
Humidity 73%
Rainfall 0.00 in
Snow Depth Not available.
7:07 AM 5:01 PM
New Moon, 0% visible
METAR KGEG 081853Z 04005KT 10SM BKN200 03/M01 A3061 RMK AO2 SLP384 T00331011

10-Day Weather Forecast

Almanac

Astronomy

Feb. 08, 2016 Rise Set
Actual Time
Civil Twilight
Nautical Twilight
Astronomical Twilight
Moon
Length of Visible Light
Length of Day
Tomorrow will be .
, % of the Moon is Illuminated

Today's Extremes

State Highs State Lows

Community

WunderPhotos

Upload Photos

1,891,499 photos uploaded!

WunderBlog® & News

Nearby

Air Quality

  Air Quality AQ Index Pollutant
Not available.

Snow Depth

Station Depth Elevation

Earthquake Activity

City Distance Mag. Time & Date
Minimum magnitude displayed is 2.5.

Coastal Water Temperatures

Place Temperature

Stations

Nearby Weather Stations

Station Location Temp. Windchill Dew Point Humidity Wind Precip. Elev Updated Type
                   

Watches & Warnings

There are currently no watches in effect.